sensor_id;sensor_type;location;lat;lon;timestamp;P1;durP1;ratioP1;P2;durP2;ratioP2
15677;SDS011;7939;50.814;6.368;2023-02-28T00:01:04;4.28;;;3.42;;
15677;SDS011;7939;50.814;6.368;2023-02-28T00:03:32;3.93;;;2.80;;
15677;SDS011;7939;50.814;6.368;2023-02-28T00:06:00;4.78;;;3.00;;
15677;SDS011;7939;50.814;6.368;2023-02-28T00:08:28;3.37;;;2.87;;
15677;SDS011;7939;50.814;6.368;2023-02-28T00:10:54;5.65;;;2.85;;
15677;SDS011;7939;50.814;6.368;2023-02-28T00:13:21;5.00;;;3.27;;
15677;SDS011;7939;50.814;6.368;2023-02-28T00:15:47;2.93;;;2.50;;
15677;SDS011;7939;50.814;6.368;2023-02-28T00:18:24;4.90;;;3.10;;
15677;SDS011;7939;50.814;6.368;2023-02-28T00:20:52;5.80;;;2.83;;
15677;SDS011;7939;50.814;6.368;2023-02-28T00:23:19;5.13;;;2.90;;
15677;SDS011;7939;50.814;6.368;2023-02-28T00:25:45;3.33;;;2.90;;
15677;SDS011;7939;50.814;6.368;2023-02-28T00:28:12;3.37;;;2.60;;
15677;SDS011;7939;50.814;6.368;2023-02-28T00:30:39;4.57;;;2.67;;
15677;SDS011;7939;50.814;6.368;2023-02-28T00:33:05;3.60;;;2.40;;
15677;SDS011;7939;50.814;6.368;2023-02-28T00:35:32;2.87;;;2.63;;
15677;SDS011;7939;50.814;6.368;2023-02-28T00:38:00;4.32;;;2.47;;
15677;SDS011;7939;50.814;6.368;2023-02-28T00:40:27;3.17;;;2.28;;
15677;SDS011;7939;50.814;6.368;2023-02-28T00:42:54;4.13;;;2.60;;
15677;SDS011;7939;50.814;6.368;2023-02-28T00:45:20;3.80;;;2.60;;
15677;SDS011;7939;50.814;6.368;2023-02-28T00:47:47;4.07;;;2.90;;
15677;SDS011;7939;50.814;6.368;2023-02-28T00:50:15;6.72;;;2.67;;
15677;SDS011;7939;50.814;6.368;2023-02-28T00:52:42;4.35;;;2.97;;
15677;SDS011;7939;50.814;6.368;2023-02-28T00:55:10;4.60;;;3.00;;
15677;SDS011;7939;50.814;6.368;2023-02-28T00:57:37;5.37;;;3.03;;
15677;SDS011;7939;50.814;6.368;2023-02-28T01:00:04;2.90;;;2.45;;
15677;SDS011;7939;50.814;6.368;2023-02-28T01:02:31;2.97;;;2.50;;
15677;SDS011;7939;50.814;6.368;2023-02-28T01:04:58;5.22;;;2.58;;
15677;SDS011;7939;50.814;6.368;2023-02-28T01:07:24;4.67;;;2.73;;
15677;SDS011;7939;50.814;6.368;2023-02-28T01:09:51;4.17;;;2.97;;
15677;SDS011;7939;50.814;6.368;2023-02-28T01:12:19;3.53;;;2.40;;
15677;SDS011;7939;50.814;6.368;2023-02-28T01:14:45;3.97;;;2.90;;
15677;SDS011;7939;50.814;6.368;2023-02-28T01:17:12;2.80;;;2.50;;
15677;SDS011;7939;50.814;6.368;2023-02-28T01:19:38;2.97;;;2.70;;
15677;SDS011;7939;50.814;6.368;2023-02-28T01:22:06;4.20;;;2.60;;
15677;SDS011;7939;50.814;6.368;2023-02-28T01:24:32;3.37;;;2.87;;
15677;SDS011;7939;50.814;6.368;2023-02-28T01:26:59;3.07;;;2.47;;
15677;SDS011;7939;50.814;6.368;2023-02-28T01:29:27;3.07;;;2.77;;
15677;SDS011;7939;50.814;6.368;2023-02-28T01:31:54;3.38;;;3.08;;
15677;SDS011;7939;50.814;6.368;2023-02-28T01:34:20;3.77;;;2.90;;
15677;SDS011;7939;50.814;6.368;2023-02-28T01:36:47;3.63;;;2.60;;
15677;SDS011;7939;50.814;6.368;2023-02-28T01:39:13;4.97;;;2.53;;
15677;SDS011;7939;50.814;6.368;2023-02-28T01:41:40;3.47;;;2.40;;
15677;SDS011;7939;50.814;6.368;2023-02-28T01:44:07;5.40;;;2.97;;
15677;SDS011;7939;50.814;6.368;2023-02-28T01:47:13;5.77;;;2.57;;
15677;SDS011;7939;50.814;6.368;2023-02-28T01:49:40;4.50;;;2.80;;
15677;SDS011;7939;50.814;6.368;2023-02-28T01:52:07;2.83;;;2.53;;
15677;SDS011;7939;50.814;6.368;2023-02-28T01:54:43;3.57;;;3.27;;
15677;SDS011;7939;50.814;6.368;2023-02-28T01:57:13;5.45;;;3.10;;
15677;SDS011;7939;50.814;6.368;2023-02-28T01:59:45;4.80;;;2.83;;
15677;SDS011;7939;50.814;6.368;2023-02-28T02:02:17;4.77;;;2.53;;
15677;SDS011;7939;50.814;6.368;2023-02-28T02:04:51;3.37;;;3.00;;
15677;SDS011;7939;50.814;6.368;2023-02-28T02:07:21;2.53;;;2.33;;
15677;SDS011;7939;50.814;6.368;2023-02-28T02:09:49;3.00;;;2.30;;
15677;SDS011;7939;50.814;6.368;2023-02-28T02:12:20;3.23;;;2.70;;
15677;SDS011;7939;50.814;6.368;2023-02-28T02:14:57;2.92;;;2.65;;
15677;SDS011;7939;50.814;6.368;2023-02-28T02:17:34;4.10;;;2.50;;
15677;SDS011;7939;50.814;6.368;2023-02-28T02:20:16;4.57;;;2.90;;
15677;SDS011;7939;50.814;6.368;2023-02-28T02:23:07;2.70;;;2.50;;
15677;SDS011;7939;50.814;6.368;2023-02-28T02:25:48;3.93;;;2.60;;
15677;SDS011;7939;50.814;6.368;2023-02-28T02:28:29;3.30;;;2.37;;
15677;SDS011;7939;50.814;6.368;2023-02-28T02:34:24;5.10;;;2.50;;
15677;SDS011;7939;50.814;6.368;2023-02-28T02:36:58;3.07;;;2.70;;
15677;SDS011;7939;50.814;6.368;2023-02-28T02:39:36;3.60;;;2.63;;
15677;SDS011;7939;50.814;6.368;2023-02-28T02:42:14;3.27;;;2.40;;
15677;SDS011;7939;50.814;6.368;2023-02-28T02:44:47;3.83;;;2.43;;
15677;SDS011;7939;50.814;6.368;2023-02-28T02:47:24;4.00;;;2.83;;
15677;SDS011;7939;50.814;6.368;2023-02-28T02:49:56;4.60;;;2.80;;
15677;SDS011;7939;50.814;6.368;2023-02-28T02:52:29;5.07;;;2.60;;
15677;SDS011;7939;50.814;6.368;2023-02-28T02:55:00;3.20;;;2.57;;
15677;SDS011;7939;50.814;6.368;2023-02-28T02:57:31;3.10;;;2.60;;
15677;SDS011;7939;50.814;6.368;2023-02-28T03:00:00;2.93;;;2.43;;
15677;SDS011;7939;50.814;6.368;2023-02-28T03:02:33;5.00;;;2.63;;
15677;SDS011;7939;50.814;6.368;2023-02-28T03:05:04;5.80;;;2.80;;
15677;SDS011;7939;50.814;6.368;2023-02-28T03:07:34;3.20;;;2.40;;
15677;SDS011;7939;50.814;6.368;2023-02-28T03:10:01;4.37;;;2.63;;
15677;SDS011;7939;50.814;6.368;2023-02-28T03:12:29;3.40;;;2.80;;
15677;SDS011;7939;50.814;6.368;2023-02-28T03:15:04;3.17;;;2.70;;
15677;SDS011;7939;50.814;6.368;2023-02-28T03:20:35;3.37;;;2.57;;
15677;SDS011;7939;50.814;6.368;2023-02-28T03:23:12;2.43;;;2.23;;
15677;SDS011;7939;50.814;6.368;2023-02-28T03:25:44;4.87;;;2.57;;
15677;SDS011;7939;50.814;6.368;2023-02-28T03:28:23;3.03;;;2.40;;
15677;SDS011;7939;50.814;6.368;2023-02-28T03:30:59;2.60;;;2.40;;
15677;SDS011;7939;50.814;6.368;2023-02-28T03:33:30;3.53;;;2.30;;
15677;SDS011;7939;50.814;6.368;2023-02-28T03:36:03;3.90;;;3.13;;
15677;SDS011;7939;50.814;6.368;2023-02-28T03:38:35;4.07;;;2.70;;
15677;SDS011;7939;50.814;6.368;2023-02-28T03:41:05;4.07;;;2.87;;
15677;SDS011;7939;50.814;6.368;2023-02-28T03:43:38;5.70;;;2.80;;
15677;SDS011;7939;50.814;6.368;2023-02-28T03:46:09;3.83;;;2.73;;
15677;SDS011;7939;50.814;6.368;2023-02-28T03:48:40;2.70;;;2.37;;
15677;SDS011;7939;50.814;6.368;2023-02-28T03:51:13;3.17;;;2.53;;
15677;SDS011;7939;50.814;6.368;2023-02-28T03:53:42;2.90;;;2.53;;
15677;SDS011;7939;50.814;6.368;2023-02-28T03:56:13;3.13;;;2.40;;
15677;SDS011;7939;50.814;6.368;2023-02-28T03:58:44;2.57;;;2.37;;
15677;SDS011;7939;50.814;6.368;2023-02-28T04:01:16;2.67;;;2.43;;
15677;SDS011;7939;50.814;6.368;2023-02-28T04:03:47;3.37;;;2.63;;
15677;SDS011;7939;50.814;6.368;2023-02-28T04:06:18;3.37;;;2.80;;
15677;SDS011;7939;50.814;6.368;2023-02-28T04:08:46;5.87;;;3.50;;
15677;SDS011;7939;50.814;6.368;2023-02-28T04:11:17;5.47;;;3.40;;
15677;SDS011;7939;50.814;6.368;2023-02-28T04:13:47;4.30;;;3.07;;
15677;SDS011;7939;50.814;6.368;2023-02-28T04:16:14;3.50;;;2.77;;
15677;SDS011;7939;50.814;6.368;2023-02-28T04:18:41;4.30;;;3.40;;
15677;SDS011;7939;50.814;6.368;2023-02-28T04:21:09;5.30;;;3.47;;
15677;SDS011;7939;50.814;6.368;2023-02-28T04:23:37;3.87;;;3.37;;
15677;SDS011;7939;50.814;6.368;2023-02-28T04:26:04;4.07;;;3.10;;
15677;SDS011;7939;50.814;6.368;2023-02-28T04:28:31;4.00;;;3.30;;
15677;SDS011;7939;50.814;6.368;2023-02-28T04:30:57;3.70;;;3.07;;
15677;SDS011;7939;50.814;6.368;2023-02-28T04:33:25;4.37;;;2.90;;
15677;SDS011;7939;50.814;6.368;2023-02-28T04:35:57;4.90;;;3.40;;
15677;SDS011;7939;50.814;6.368;2023-02-28T04:38:24;2.93;;;2.70;;
15677;SDS011;7939;50.814;6.368;2023-02-28T04:40:52;6.90;;;3.63;;
15677;SDS011;7939;50.814;6.368;2023-02-28T04:43:19;6.63;;;3.90;;
15677;SDS011;7939;50.814;6.368;2023-02-28T04:45:45;3.87;;;3.53;;
15677;SDS011;7939;50.814;6.368;2023-02-28T04:48:12;4.47;;;3.47;;
15677;SDS011;7939;50.814;6.368;2023-02-28T04:50:39;4.93;;;3.60;;
15677;SDS011;7939;50.814;6.368;2023-02-28T04:53:05;6.17;;;3.40;;
15677;SDS011;7939;50.814;6.368;2023-02-28T04:55:32;3.50;;;2.93;;
15677;SDS011;7939;50.814;6.368;2023-02-28T04:58:00;3.23;;;2.90;;
15677;SDS011;7939;50.814;6.368;2023-02-28T05:00:27;3.90;;;3.10;;
15677;SDS011;7939;50.814;6.368;2023-02-28T05:02:54;3.87;;;2.90;;
15677;SDS011;7939;50.814;6.368;2023-02-28T05:05:20;5.30;;;3.40;;
15677;SDS011;7939;50.814;6.368;2023-02-28T05:07:47;4.33;;;3.83;;
15677;SDS011;7939;50.814;6.368;2023-02-28T05:10:14;4.57;;;3.73;;
15677;SDS011;7939;50.814;6.368;2023-02-28T05:12:41;5.63;;;3.50;;
15677;SDS011;7939;50.814;6.368;2023-02-28T05:15:10;5.90;;;3.47;;
15677;SDS011;7939;50.814;6.368;2023-02-28T05:17:39;5.80;;;4.37;;
15677;SDS011;7939;50.814;6.368;2023-02-28T05:20:06;4.73;;;3.47;;
15677;SDS011;7939;50.814;6.368;2023-02-28T05:22:35;9.60;;;3.53;;
15677;SDS011;7939;50.814;6.368;2023-02-28T05:25:02;4.37;;;3.50;;
15677;SDS011;7939;50.814;6.368;2023-02-28T05:27:29;7.03;;;4.30;;
15677;SDS011;7939;50.814;6.368;2023-02-28T05:29:56;9.67;;;4.83;;
15677;SDS011;7939;50.814;6.368;2023-02-28T05:32:25;8.93;;;5.20;;
15677;SDS011;7939;50.814;6.368;2023-02-28T05:34:51;9.03;;;5.43;;
15677;SDS011;7939;50.814;6.368;2023-02-28T05:37:18;6.10;;;5.07;;
15677;SDS011;7939;50.814;6.368;2023-02-28T05:39:44;8.63;;;5.33;;
15677;SDS011;7939;50.814;6.368;2023-02-28T05:42:11;10.00;;;5.67;;
15677;SDS011;7939;50.814;6.368;2023-02-28T05:44:38;8.07;;;5.37;;
15677;SDS011;7939;50.814;6.368;2023-02-28T05:47:05;10.17;;;5.93;;
15677;SDS011;7939;50.814;6.368;2023-02-28T05:49:33;9.33;;;6.03;;
15677;SDS011;7939;50.814;6.368;2023-02-28T05:51:59;9.00;;;5.60;;
15677;SDS011;7939;50.814;6.368;2023-02-28T05:54:26;9.47;;;5.43;;
15677;SDS011;7939;50.814;6.368;2023-02-28T05:56:52;7.67;;;3.93;;
15677;SDS011;7939;50.814;6.368;2023-02-28T05:59:19;7.33;;;4.50;;
15677;SDS011;7939;50.814;6.368;2023-02-28T06:01:46;6.10;;;4.03;;
15677;SDS011;7939;50.814;6.368;2023-02-28T06:04:14;6.03;;;4.40;;
15677;SDS011;7939;50.814;6.368;2023-02-28T06:06:45;5.87;;;4.63;;
15677;SDS011;7939;50.814;6.368;2023-02-28T06:09:12;7.37;;;4.93;;
15677;SDS011;7939;50.814;6.368;2023-02-28T06:11:39;9.57;;;4.30;;
15677;SDS011;7939;50.814;6.368;2023-02-28T06:14:06;7.40;;;4.50;;
15677;SDS011;7939;50.814;6.368;2023-02-28T06:16:39;9.03;;;4.80;;
15677;SDS011;7939;50.814;6.368;2023-02-28T06:19:06;9.30;;;5.07;;
15677;SDS011;7939;50.814;6.368;2023-02-28T06:21:33;7.40;;;4.80;;
15677;SDS011;7939;50.814;6.368;2023-02-28T06:24:01;5.13;;;3.77;;
15677;SDS011;7939;50.814;6.368;2023-02-28T06:26:28;6.03;;;4.30;;
15677;SDS011;7939;50.814;6.368;2023-02-28T06:28:55;5.13;;;3.50;;
15677;SDS011;7939;50.814;6.368;2023-02-28T06:31:23;7.23;;;3.80;;
15677;SDS011;7939;50.814;6.368;2023-02-28T06:33:51;5.80;;;3.63;;
15677;SDS011;7939;50.814;6.368;2023-02-28T06:36:17;3.97;;;3.57;;
15677;SDS011;7939;50.814;6.368;2023-02-28T06:38:45;7.20;;;4.07;;
15677;SDS011;7939;50.814;6.368;2023-02-28T06:41:17;8.20;;;4.20;;
15677;SDS011;7939;50.814;6.368;2023-02-28T06:43:44;12.40;;;5.93;;
15677;SDS011;7939;50.814;6.368;2023-02-28T06:46:12;8.73;;;5.03;;
15677;SDS011;7939;50.814;6.368;2023-02-28T06:48:39;10.17;;;4.60;;
15677;SDS011;7939;50.814;6.368;2023-02-28T06:51:08;10.33;;;5.03;;
15677;SDS011;7939;50.814;6.368;2023-02-28T06:53:36;8.80;;;4.60;;
15677;SDS011;7939;50.814;6.368;2023-02-28T06:56:04;9.37;;;5.13;;
15677;SDS011;7939;50.814;6.368;2023-02-28T06:58:33;11.40;;;5.60;;
15677;SDS011;7939;50.814;6.368;2023-02-28T07:00:59;10.40;;;5.60;;
15677;SDS011;7939;50.814;6.368;2023-02-28T07:03:26;10.27;;;5.57;;
15677;SDS011;7939;50.814;6.368;2023-02-28T07:05:53;11.00;;;6.40;;
15677;SDS011;7939;50.814;6.368;2023-02-28T07:08:21;11.60;;;6.37;;
15677;SDS011;7939;50.814;6.368;2023-02-28T07:10:51;10.83;;;5.63;;
15677;SDS011;7939;50.814;6.368;2023-02-28T07:13:18;8.70;;;5.37;;
15677;SDS011;7939;50.814;6.368;2023-02-28T07:15:52;9.70;;;5.10;;
15677;SDS011;7939;50.814;6.368;2023-02-28T07:18:19;7.20;;;4.87;;
15677;SDS011;7939;50.814;6.368;2023-02-28T07:20:46;5.07;;;4.13;;
15677;SDS011;7939;50.814;6.368;2023-02-28T07:23:13;5.67;;;4.23;;
15677;SDS011;7939;50.814;6.368;2023-02-28T07:25:39;5.07;;;4.30;;
15677;SDS011;7939;50.814;6.368;2023-02-28T07:28:06;7.27;;;3.80;;
15677;SDS011;7939;50.814;6.368;2023-02-28T07:30:33;7.03;;;4.40;;
15677;SDS011;7939;50.814;6.368;2023-02-28T07:33:01;4.00;;;3.67;;
15677;SDS011;7939;50.814;6.368;2023-02-28T07:35:29;6.93;;;4.30;;
15677;SDS011;7939;50.814;6.368;2023-02-28T07:37:56;5.47;;;3.67;;
15677;SDS011;7939;50.814;6.368;2023-02-28T07:40:23;5.70;;;4.03;;
15677;SDS011;7939;50.814;6.368;2023-02-28T07:42:51;6.17;;;4.40;;
15677;SDS011;7939;50.814;6.368;2023-02-28T07:45:17;5.73;;;4.50;;
15677;SDS011;7939;50.814;6.368;2023-02-28T07:47:44;5.13;;;4.33;;
15677;SDS011;7939;50.814;6.368;2023-02-28T07:50:14;6.17;;;4.37;;
15677;SDS011;7939;50.814;6.368;2023-02-28T07:52:42;6.20;;;4.63;;
15677;SDS011;7939;50.814;6.368;2023-02-28T07:55:09;7.00;;;4.33;;
15677;SDS011;7939;50.814;6.368;2023-02-28T07:57:36;6.23;;;4.20;;
15677;SDS011;7939;50.814;6.368;2023-02-28T08:00:03;5.73;;;3.93;;
15677;SDS011;7939;50.814;6.368;2023-02-28T08:02:31;5.07;;;4.07;;
15677;SDS011;7939;50.814;6.368;2023-02-28T08:04:57;5.87;;;4.47;;
15677;SDS011;7939;50.814;6.368;2023-02-28T08:07:27;6.27;;;4.33;;
15677;SDS011;7939;50.814;6.368;2023-02-28T08:09:53;6.97;;;4.53;;
15677;SDS011;7939;50.814;6.368;2023-02-28T08:12:20;9.83;;;5.43;;
15677;SDS011;7939;50.814;6.368;2023-02-28T08:14:47;6.63;;;4.17;;
15677;SDS011;7939;50.814;6.368;2023-02-28T08:17:14;4.97;;;4.37;;
15677;SDS011;7939;50.814;6.368;2023-02-28T08:19:41;6.67;;;4.10;;
15677;SDS011;7939;50.814;6.368;2023-02-28T08:22:07;7.90;;;5.20;;
15677;SDS011;7939;50.814;6.368;2023-02-28T08:24:36;11.03;;;4.93;;
15677;SDS011;7939;50.814;6.368;2023-02-28T08:27:02;6.17;;;4.20;;
15677;SDS011;7939;50.814;6.368;2023-02-28T08:29:29;5.57;;;4.20;;
15677;SDS011;7939;50.814;6.368;2023-02-28T08:31:56;6.57;;;4.30;;
15677;SDS011;7939;50.814;6.368;2023-02-28T08:34:23;6.90;;;4.73;;
15677;SDS011;7939;50.814;6.368;2023-02-28T08:36:50;8.80;;;5.47;;
15677;SDS011;7939;50.814;6.368;2023-02-28T08:39:18;4.77;;;4.03;;
15677;SDS011;7939;50.814;6.368;2023-02-28T08:41:46;9.70;;;4.30;;
15677;SDS011;7939;50.814;6.368;2023-02-28T08:44:13;5.70;;;4.00;;
15677;SDS011;7939;50.814;6.368;2023-02-28T08:46:39;4.17;;;3.67;;
15677;SDS011;7939;50.814;6.368;2023-02-28T08:49:06;4.10;;;3.63;;
15677;SDS011;7939;50.814;6.368;2023-02-28T08:51:34;6.77;;;3.70;;
15677;SDS011;7939;50.814;6.368;2023-02-28T08:54:01;4.50;;;3.67;;
15677;SDS011;7939;50.814;6.368;2023-02-28T08:56:28;6.70;;;4.43;;
15677;SDS011;7939;50.814;6.368;2023-02-28T08:58:57;5.27;;;3.77;;
15677;SDS011;7939;50.814;6.368;2023-02-28T09:01:24;3.27;;;2.97;;
15677;SDS011;7939;50.814;6.368;2023-02-28T09:03:53;3.67;;;3.20;;
15677;SDS011;7939;50.814;6.368;2023-02-28T09:06:21;5.13;;;3.07;;
15677;SDS011;7939;50.814;6.368;2023-02-28T09:08:49;3.70;;;3.00;;
15677;SDS011;7939;50.814;6.368;2023-02-28T09:11:16;6.43;;;3.03;;
15677;SDS011;7939;50.814;6.368;2023-02-28T09:13:44;6.43;;;3.10;;
15677;SDS011;7939;50.814;6.368;2023-02-28T09:16:13;4.63;;;3.07;;
15677;SDS011;7939;50.814;6.368;2023-02-28T09:18:41;3.03;;;2.73;;
15677;SDS011;7939;50.814;6.368;2023-02-28T09:21:09;3.53;;;2.90;;
15677;SDS011;7939;50.814;6.368;2023-02-28T09:23:39;2.83;;;2.53;;
15677;SDS011;7939;50.814;6.368;2023-02-28T09:26:06;3.67;;;2.43;;
15677;SDS011;7939;50.814;6.368;2023-02-28T09:28:33;2.50;;;2.30;;
15677;SDS011;7939;50.814;6.368;2023-02-28T09:31:00;3.90;;;2.90;;
15677;SDS011;7939;50.814;6.368;2023-02-28T09:33:31;4.20;;;2.80;;
15677;SDS011;7939;50.814;6.368;2023-02-28T09:36:00;3.97;;;2.80;;
15677;SDS011;7939;50.814;6.368;2023-02-28T09:38:27;4.10;;;2.37;;
15677;SDS011;7939;50.814;6.368;2023-02-28T09:40:55;2.77;;;2.50;;
15677;SDS011;7939;50.814;6.368;2023-02-28T09:43:25;3.07;;;2.87;;
15677;SDS011;7939;50.814;6.368;2023-02-28T09:45:56;2.27;;;2.07;;
15677;SDS011;7939;50.814;6.368;2023-02-28T09:48:31;5.83;;;2.80;;
15677;SDS011;7939;50.814;6.368;2023-02-28T09:51:02;2.60;;;2.40;;
15677;SDS011;7939;50.814;6.368;2023-02-28T09:53:32;4.67;;;3.23;;
15677;SDS011;7939;50.814;6.368;2023-02-28T09:56:04;3.83;;;2.80;;
15677;SDS011;7939;50.814;6.368;2023-02-28T09:58:36;2.27;;;2.17;;
15677;SDS011;7939;50.814;6.368;2023-02-28T10:01:09;4.57;;;2.90;;
15677;SDS011;7939;50.814;6.368;2023-02-28T10:03:48;2.57;;;2.00;;
15677;SDS011;7939;50.814;6.368;2023-02-28T10:06:22;3.43;;;2.70;;
15677;SDS011;7939;50.814;6.368;2023-02-28T10:08:56;2.40;;;2.20;;
15677;SDS011;7939;50.814;6.368;2023-02-28T10:11:27;3.03;;;2.60;;
15677;SDS011;7939;50.814;6.368;2023-02-28T10:13:59;3.70;;;3.00;;
15677;SDS011;7939;50.814;6.368;2023-02-28T10:16:31;6.70;;;2.50;;
15677;SDS011;7939;50.814;6.368;2023-02-28T10:19:04;2.63;;;2.43;;
15677;SDS011;7939;50.814;6.368;2023-02-28T10:21:37;2.57;;;2.37;;
15677;SDS011;7939;50.814;6.368;2023-02-28T10:24:13;2.37;;;2.17;;
15677;SDS011;7939;50.814;6.368;2023-02-28T10:26:46;3.77;;;2.63;;
15677;SDS011;7939;50.814;6.368;2023-02-28T10:29:13;3.23;;;2.93;;
15677;SDS011;7939;50.814;6.368;2023-02-28T10:31:41;3.67;;;2.67;;
15677;SDS011;7939;50.814;6.368;2023-02-28T10:34:12;2.43;;;2.20;;
15677;SDS011;7939;50.814;6.368;2023-02-28T10:36:38;3.40;;;2.67;;
15677;SDS011;7939;50.814;6.368;2023-02-28T10:42:01;4.17;;;2.33;;
15677;SDS011;7939;50.814;6.368;2023-02-28T10:44:27;2.70;;;2.13;;
15677;SDS011;7939;50.814;6.368;2023-02-28T10:46:54;4.67;;;2.50;;
15677;SDS011;7939;50.814;6.368;2023-02-28T10:49:24;2.70;;;2.50;;
15677;SDS011;7939;50.814;6.368;2023-02-28T10:51:54;2.67;;;2.27;;
15677;SDS011;7939;50.814;6.368;2023-02-28T10:54:22;2.50;;;2.30;;
15677;SDS011;7939;50.814;6.368;2023-02-28T10:57:14;2.73;;;2.50;;
15677;SDS011;7939;50.814;6.368;2023-02-28T10:59:44;4.13;;;2.83;;
15677;SDS011;7939;50.814;6.368;2023-02-28T11:02:28;4.37;;;3.57;;
15677;SDS011;7939;50.814;6.368;2023-02-28T11:04:58;3.47;;;2.60;;
15677;SDS011;7939;50.814;6.368;2023-02-28T11:07:25;3.13;;;2.83;;
15677;SDS011;7939;50.814;6.368;2023-02-28T11:09:54;4.10;;;3.47;;
15677;SDS011;7939;50.814;6.368;2023-02-28T11:12:23;3.07;;;2.77;;
15677;SDS011;7939;50.814;6.368;2023-02-28T11:14:54;3.57;;;2.57;;
15677;SDS011;7939;50.814;6.368;2023-02-28T11:17:24;5.33;;;3.23;;
15677;SDS011;7939;50.814;6.368;2023-02-28T11:19:55;3.17;;;2.87;;
15677;SDS011;7939;50.814;6.368;2023-02-28T11:22:26;3.90;;;3.50;;
15677;SDS011;7939;50.814;6.368;2023-02-28T11:24:54;3.33;;;3.00;;
15677;SDS011;7939;50.814;6.368;2023-02-28T11:27:40;3.73;;;3.33;;
15677;SDS011;7939;50.814;6.368;2023-02-28T11:33:18;3.17;;;2.87;;
15677;SDS011;7939;50.814;6.368;2023-02-28T11:35:48;3.20;;;2.90;;
15677;SDS011;7939;50.814;6.368;2023-02-28T11:38:17;4.37;;;3.33;;
15677;SDS011;7939;50.814;6.368;2023-02-28T11:40:46;6.50;;;3.00;;
15677;SDS011;7939;50.814;6.368;2023-02-28T11:43:20;3.23;;;2.93;;
15677;SDS011;7939;50.814;6.368;2023-02-28T11:46:01;5.67;;;4.00;;
15677;SDS011;7939;50.814;6.368;2023-02-28T11:48:43;4.57;;;3.20;;
15677;SDS011;7939;50.814;6.368;2023-02-28T11:51:21;5.27;;;3.53;;
15677;SDS011;7939;50.814;6.368;2023-02-28T11:53:59;3.37;;;3.07;;
15677;SDS011;7939;50.814;6.368;2023-02-28T11:56:37;3.73;;;3.43;;
15677;SDS011;7939;50.814;6.368;2023-02-28T11:59:17;5.50;;;2.93;;
15677;SDS011;7939;50.814;6.368;2023-02-28T12:02:06;3.87;;;2.83;;
15677;SDS011;7939;50.814;6.368;2023-02-28T12:04:52;3.80;;;3.10;;
15677;SDS011;7939;50.814;6.368;2023-02-28T12:07:38;3.60;;;3.10;;
15677;SDS011;7939;50.814;6.368;2023-02-28T12:10:17;3.97;;;2.80;;
15677;SDS011;7939;50.814;6.368;2023-02-28T12:12:50;2.90;;;2.70;;
15677;SDS011;7939;50.814;6.368;2023-02-28T12:15:34;3.03;;;2.50;;
15677;SDS011;7939;50.814;6.368;2023-02-28T12:18:15;2.97;;;2.70;;
15677;SDS011;7939;50.814;6.368;2023-02-28T12:20:52;3.77;;;3.10;;
15677;SDS011;7939;50.814;6.368;2023-02-28T12:23:29;4.67;;;2.80;;
15677;SDS011;7939;50.814;6.368;2023-02-28T12:26:15;4.87;;;3.50;;
15677;SDS011;7939;50.814;6.368;2023-02-28T12:28:50;3.58;;;2.90;;
15677;SDS011;7939;50.814;6.368;2023-02-28T12:31:20;5.67;;;3.20;;
15677;SDS011;7939;50.814;6.368;2023-02-28T12:33:50;3.50;;;3.05;;
15677;SDS011;7939;50.814;6.368;2023-02-28T12:36:19;3.63;;;3.13;;
15677;SDS011;7939;50.814;6.368;2023-02-28T12:38:50;3.47;;;3.10;;
15677;SDS011;7939;50.814;6.368;2023-02-28T12:41:22;6.43;;;3.80;;
15677;SDS011;7939;50.814;6.368;2023-02-28T12:43:55;3.45;;;3.15;;
15677;SDS011;7939;50.814;6.368;2023-02-28T12:46:29;3.22;;;2.92;;
15677;SDS011;7939;50.814;6.368;2023-02-28T12:49:00;4.07;;;3.77;;
15677;SDS011;7939;50.814;6.368;2023-02-28T12:51:32;3.93;;;3.20;;
15677;SDS011;7939;50.814;6.368;2023-02-28T12:54:04;4.60;;;3.50;;
15677;SDS011;7939;50.814;6.368;2023-02-28T12:56:41;4.87;;;3.40;;
15677;SDS011;7939;50.814;6.368;2023-02-28T12:59:14;3.47;;;3.17;;
15677;SDS011;7939;50.814;6.368;2023-02-28T13:01:54;3.27;;;3.07;;
15677;SDS011;7939;50.814;6.368;2023-02-28T13:04:32;3.53;;;3.10;;
15677;SDS011;7939;50.814;6.368;2023-02-28T13:07:36;3.50;;;3.03;;
15677;SDS011;7939;50.814;6.368;2023-02-28T13:10:16;4.82;;;3.63;;
15677;SDS011;7939;50.814;6.368;2023-02-28T13:12:48;4.90;;;3.30;;
15677;SDS011;7939;50.814;6.368;2023-02-28T13:15:17;6.80;;;3.53;;
15677;SDS011;7939;50.814;6.368;2023-02-28T13:17:49;4.53;;;3.50;;
15677;SDS011;7939;50.814;6.368;2023-02-28T13:20:18;4.93;;;3.30;;
15677;SDS011;7939;50.814;6.368;2023-02-28T13:22:48;4.17;;;3.43;;
15677;SDS011;7939;50.814;6.368;2023-02-28T13:31:32;4.20;;;3.13;;
15677;SDS011;7939;50.814;6.368;2023-02-28T13:34:30;4.37;;;3.97;;
15677;SDS011;7939;50.814;6.368;2023-02-28T13:40:14;4.80;;;3.50;;
15677;SDS011;7939;50.814;6.368;2023-02-28T13:42:54;3.63;;;3.33;;
15677;SDS011;7939;50.814;6.368;2023-02-28T13:45:25;3.60;;;3.30;;
15677;SDS011;7939;50.814;6.368;2023-02-28T13:47:55;3.43;;;3.13;;
15677;SDS011;7939;50.814;6.368;2023-02-28T13:50:27;3.60;;;3.10;;
15677;SDS011;7939;50.814;6.368;2023-02-28T13:53:01;3.97;;;3.67;;
15677;SDS011;7939;50.814;6.368;2023-02-28T13:55:46;4.43;;;3.77;;
15677;SDS011;7939;50.814;6.368;2023-02-28T13:58:23;4.77;;;3.63;;
15677;SDS011;7939;50.814;6.368;2023-02-28T14:01:02;4.47;;;4.03;;
15677;SDS011;7939;50.814;6.368;2023-02-28T14:03:46;3.60;;;3.30;;
15677;SDS011;7939;50.814;6.368;2023-02-28T14:06:26;4.32;;;3.80;;
15677;SDS011;7939;50.814;6.368;2023-02-28T14:08:58;5.77;;;4.07;;
15677;SDS011;7939;50.814;6.368;2023-02-28T14:11:30;3.87;;;3.57;;
15677;SDS011;7939;50.814;6.368;2023-02-28T14:13:58;4.78;;;3.60;;
15677;SDS011;7939;50.814;6.368;2023-02-28T14:16:26;4.10;;;3.80;;
15677;SDS011;7939;50.814;6.368;2023-02-28T14:19:04;4.33;;;3.57;;
15677;SDS011;7939;50.814;6.368;2023-02-28T14:21:39;4.70;;;4.30;;
15677;SDS011;7939;50.814;6.368;2023-02-28T14:24:23;4.20;;;3.73;;
15677;SDS011;7939;50.814;6.368;2023-02-28T14:27:11;4.30;;;3.90;;
15677;SDS011;7939;50.814;6.368;2023-02-28T14:29:59;4.13;;;3.43;;
15677;SDS011;7939;50.814;6.368;2023-02-28T14:32:49;4.57;;;3.70;;
15677;SDS011;7939;50.814;6.368;2023-02-28T14:35:35;4.10;;;3.70;;
15677;SDS011;7939;50.814;6.368;2023-02-28T14:38:13;5.10;;;4.10;;
15677;SDS011;7939;50.814;6.368;2023-02-28T14:40:43;3.80;;;3.50;;
15677;SDS011;7939;50.814;6.368;2023-02-28T14:43:18;4.30;;;3.90;;
15677;SDS011;7939;50.814;6.368;2023-02-28T14:45:49;6.30;;;4.07;;
15677;SDS011;7939;50.814;6.368;2023-02-28T14:48:17;5.40;;;4.20;;
15677;SDS011;7939;50.814;6.368;2023-02-28T14:50:49;4.57;;;4.10;;
15677;SDS011;7939;50.814;6.368;2023-02-28T14:53:18;4.53;;;4.03;;
15677;SDS011;7939;50.814;6.368;2023-02-28T14:55:47;5.60;;;3.90;;
15677;SDS011;7939;50.814;6.368;2023-02-28T14:58:24;5.67;;;4.47;;
15677;SDS011;7939;50.814;6.368;2023-02-28T15:00:53;5.20;;;4.65;;
15677;SDS011;7939;50.814;6.368;2023-02-28T15:03:21;5.80;;;4.20;;
15677;SDS011;7939;50.814;6.368;2023-02-28T15:05:54;4.10;;;3.47;;
15677;SDS011;7939;50.814;6.368;2023-02-28T15:08:22;7.30;;;4.13;;
15677;SDS011;7939;50.814;6.368;2023-02-28T15:10:53;4.87;;;4.40;;
15677;SDS011;7939;50.814;6.368;2023-02-28T15:13:22;6.77;;;3.97;;
15677;SDS011;7939;50.814;6.368;2023-02-28T15:15:51;4.50;;;4.00;;
15677;SDS011;7939;50.814;6.368;2023-02-28T15:18:23;4.50;;;4.03;;
15677;SDS011;7939;50.814;6.368;2023-02-28T15:20:59;5.53;;;3.78;;
15677;SDS011;7939;50.814;6.368;2023-02-28T15:23:31;4.65;;;4.10;;
15677;SDS011;7939;50.814;6.368;2023-02-28T15:26:01;4.90;;;4.18;;
15677;SDS011;7939;50.814;6.368;2023-02-28T15:28:29;4.53;;;4.10;;
15677;SDS011;7939;50.814;6.368;2023-02-28T15:30:57;4.57;;;4.18;;
15677;SDS011;7939;50.814;6.368;2023-02-28T15:33:26;4.85;;;4.35;;
15677;SDS011;7939;50.814;6.368;2023-02-28T15:36:04;6.67;;;4.27;;
15677;SDS011;7939;50.814;6.368;2023-02-28T15:38:33;5.10;;;4.37;;
15677;SDS011;7939;50.814;6.368;2023-02-28T15:41:02;4.95;;;4.20;;
15677;SDS011;7939;50.814;6.368;2023-02-28T15:43:34;5.68;;;4.10;;